Allin, Illinois
Current Conditions -  °F | °C
As of 8:56 AM on Friday 31 Oct 2014 (Local Time) from KBMI Reporting Station
Broken Clouds Broken Clouds  
Wind Chill: 24°   Ceiling: 3000
Heat Index: 36°   Visibility: 10mi
Dew Point: 26°   Wind: 24mph
Humidity: 67%   Direction: 330°NNW
Pressure: 30.18"   Gusts: 29mph
Location:  40.4427°N, 89.2086°W
Report Text: KBMI 311356Z 33021G25KT 10SM BKN030 02/M03 A3018 RMK AO2 T00221033 PK WND 33030/1325 SLP232
Loading
Personal Weather Stations






























Interactive Weather Map
Tropical Storm Tracking
New forecast layout! Learn more

10-Day Weather Forecast

Advertisements
Track Severe Weather on mobile